createdAt,value
2023-03-28T00:00:12.150Z,12.10
2023-03-28T00:02:41.192Z,12.00
2023-03-28T00:05:11.377Z,12.00
2023-03-28T00:07:40.862Z,12.00
2023-03-28T00:10:12.658Z,11.90
2023-03-28T00:12:41.769Z,11.90
2023-03-28T00:15:12.200Z,11.90
2023-03-28T00:17:41.794Z,11.90
2023-03-28T00:20:14.482Z,11.90
2023-03-28T00:22:44.243Z,11.90
2023-03-28T00:25:14.764Z,11.80
2023-03-28T00:27:43.761Z,11.80
2023-03-28T00:30:14.016Z,11.80
2023-03-28T00:32:43.120Z,11.80
2023-03-28T00:35:12.747Z,11.80
2023-03-28T00:37:42.740Z,11.80
2023-03-28T00:40:14.702Z,11.80
2023-03-28T00:42:44.731Z,11.70
2023-03-28T00:45:14.510Z,11.70
2023-03-28T00:47:47.356Z,11.70
2023-03-28T00:50:20.886Z,11.70
2023-03-28T00:52:55.388Z,11.70
2023-03-28T00:55:32.284Z,11.70
2023-03-28T00:58:01.566Z,11.60
2023-03-28T01:00:32.808Z,11.70
2023-03-28T01:03:04.003Z,11.60
2023-03-28T01:05:35.571Z,11.60
2023-03-28T01:08:13.994Z,11.60
2023-03-28T01:10:45.809Z,11.60
2023-03-28T01:13:18.179Z,11.50
2023-03-28T01:15:51.407Z,11.50
2023-03-28T01:18:22.952Z,11.50
2023-03-28T01:21:48.835Z,11.50
2023-03-28T01:25:02.195Z,11.50
2023-03-28T01:27:39.608Z,11.50
2023-03-28T01:30:37.946Z,11.50
2023-03-28T01:34:35.858Z,11.40
2023-03-28T01:37:33.654Z,11.40
2023-03-28T01:40:18.684Z,11.50
2023-03-28T01:43:06.600Z,11.40
2023-03-28T01:45:48.229Z,11.40
2023-03-28T01:48:34.881Z,11.30
2023-03-28T01:51:12.717Z,11.40
2023-03-28T01:53:48.248Z,11.30
2023-03-28T01:56:26.625Z,11.30
2023-03-28T01:59:07.938Z,11.30
2023-03-28T02:02:05.469Z,11.30
2023-03-28T02:04:37.850Z,11.30
2023-03-28T02:07:08.965Z,11.20
2023-03-28T02:09:46.299Z,11.20
2023-03-28T02:12:42.493Z,11.20
2023-03-28T02:15:22.803Z,11.20
2023-03-28T02:18:20.888Z,11.20
2023-03-28T02:21:02.697Z,11.20
2023-03-28T02:24:00.351Z,11.10
2023-03-28T02:26:49.450Z,11.10
2023-03-28T02:29:42.391Z,11.10
2023-03-28T02:32:43.994Z,11.10
2023-03-28T02:35:13.654Z,11.10
2023-03-28T02:37:54.255Z,11.00
2023-03-28T02:40:53.379Z,11.00
2023-03-28T02:43:48.576Z,11.00
2023-03-28T02:46:37.836Z,11.00
2023-03-28T02:49:25.951Z,11.00
2023-03-28T02:52:09.626Z,10.90
2023-03-28T02:54:49.341Z,11.00
2023-03-28T02:57:37.532Z,10.90
2023-03-28T03:00:16.010Z,10.90
2023-03-28T03:02:49.408Z,10.90
2023-03-28T03:05:22.837Z,10.90
2023-03-28T03:07:52.249Z,10.90
2023-03-28T03:10:22.077Z,10.90
2023-03-28T03:12:51.581Z,10.80
2023-03-28T03:15:22.145Z,10.80
2023-03-28T03:17:55.667Z,10.80
2023-03-28T03:20:34.493Z,10.80
2023-03-28T03:23:05.315Z,10.80
2023-03-28T03:25:37.395Z,10.80
2023-03-28T03:28:18.786Z,10.80
2023-03-28T03:30:50.346Z,10.80
2023-03-28T03:33:25.657Z,10.70
2023-03-28T03:36:01.233Z,10.70
2023-03-28T03:38:30.398Z,10.70
2023-03-28T03:40:59.964Z,10.70
2023-03-28T03:43:32.234Z,10.70
2023-03-28T03:46:04.051Z,10.70
2023-03-28T03:48:33.651Z,10.60
2023-03-28T03:51:03.959Z,10.60
2023-03-28T03:53:35.153Z,10.60
2023-03-28T03:56:10.391Z,10.60
2023-03-28T03:59:08.218Z,10.60
2023-03-28T04:01:41.684Z,10.60
2023-03-28T04:04:48.972Z,10.50
2023-03-28T04:07:24.623Z,10.50
2023-03-28T04:09:56.856Z,10.50
2023-03-28T04:12:28.699Z,10.50
2023-03-28T04:14:58.418Z,10.50
2023-03-28T04:17:41.476Z,10.40
2023-03-28T04:20:18.240Z,10.40
2023-03-28T04:23:09.706Z,10.40
2023-03-28T04:25:42.998Z,10.40
2023-03-28T04:28:19.903Z,10.40
2023-03-28T04:31:00.331Z,10.40
2023-03-28T04:34:06.448Z,10.30
2023-03-28T04:36:41.130Z,10.40
2023-03-28T04:39:11.431Z,10.30
2023-03-28T04:42:05.469Z,10.30
2023-03-28T04:45:14.539Z,10.30
2023-03-28T04:47:46.115Z,10.30
2023-03-28T04:50:24.255Z,10.40
2023-03-28T04:52:53.277Z,10.30
2023-03-28T04:55:22.482Z,10.30
2023-03-28T04:57:52.586Z,10.30
2023-03-28T05:00:25.220Z,10.20
2023-03-28T05:03:25.594Z,10.20
2023-03-28T05:06:08.804Z,10.20
2023-03-28T05:08:38.406Z,10.20
2023-03-28T05:11:08.287Z,10.20
2023-03-28T05:13:38.818Z,10.20
2023-03-28T05:16:16.434Z,10.20
2023-03-28T05:18:46.087Z,10.10
2023-03-28T05:21:17.094Z,10.10
2023-03-28T05:23:51.555Z,10.10
2023-03-28T05:26:23.758Z,10.10
2023-03-28T05:28:53.470Z,10.10
2023-03-28T05:31:26.068Z,10.10
2023-03-28T05:34:08.628Z,10.10
2023-03-28T05:36:46.960Z,10.20
2023-03-28T05:39:25.091Z,10.10
2023-03-28T05:42:00.549Z,10.10
2023-03-28T05:44:29.518Z,10.10
2023-03-28T05:47:17.176Z,10.10
2023-03-28T05:49:46.240Z,10.00
2023-03-28T05:52:16.669Z,10.10
2023-03-28T05:54:50.672Z,10.00
2023-03-28T05:57:23.130Z,10.00
2023-03-28T05:59:52.448Z,10.00
2023-03-28T06:02:25.191Z,10.00
2023-03-28T06:05:00.291Z,10.00
2023-03-28T06:07:41.418Z,9.90
2023-03-28T06:10:15.794Z,9.90
2023-03-28T06:12:54.726Z,9.90
2023-03-28T06:15:28.382Z,9.90
2023-03-28T06:17:58.225Z,9.90
2023-03-28T06:20:27.236Z,10.00
2023-03-28T06:22:59.355Z,10.00
2023-03-28T06:25:28.501Z,9.90
2023-03-28T06:27:57.965Z,9.90
2023-03-28T06:30:27.134Z,10.00
2023-03-28T06:32:56.955Z,10.00
2023-03-28T06:35:26.079Z,10.00
2023-03-28T06:37:55.118Z,10.00
2023-03-28T06:40:29.471Z,10.10
2023-03-28T06:42:59.217Z,10.00
2023-03-28T06:45:47.874Z,10.00
2023-03-28T06:48:17.524Z,10.10
2023-03-28T06:51:09.893Z,10.10
2023-03-28T06:53:40.207Z,10.20
2023-03-28T06:56:11.884Z,10.20
2023-03-28T06:58:43.117Z,10.20
2023-03-28T07:01:17.044Z,10.30
2023-03-28T07:03:52.532Z,10.30
2023-03-28T07:06:26.764Z,10.30
2023-03-28T07:08:58.268Z,10.40
2023-03-28T07:11:37.760Z,10.40
2023-03-28T07:14:06.870Z,10.50
2023-03-28T07:16:35.960Z,10.50
2023-03-28T07:19:05.638Z,10.70
2023-03-28T07:21:38.050Z,10.70
2023-03-28T07:24:10.072Z,10.70
2023-03-28T07:27:01.260Z,10.80
2023-03-28T07:29:41.241Z,10.90
2023-03-28T07:35:00.382Z,11.10
2023-03-28T07:37:30.228Z,11.20
2023-03-28T07:40:15.329Z,11.20
2023-03-28T07:42:49.878Z,11.30
2023-03-28T07:45:19.085Z,11.40
2023-03-28T07:47:48.147Z,11.50
2023-03-28T07:50:17.811Z,11.60
2023-03-28T07:52:49.797Z,11.70
2023-03-28T07:55:18.879Z,11.80
2023-03-28T07:57:53.644Z,11.90
2023-03-28T08:00:28.968Z,12.00
2023-03-28T08:03:19.253Z,12.10
2023-03-28T08:05:51.713Z,12.20
2023-03-28T08:08:23.304Z,12.30
2023-03-28T08:11:16.426Z,12.40
2023-03-28T08:13:47.331Z,12.60
2023-03-28T08:16:24.282Z,12.70
2023-03-28T08:19:09.826Z,12.80
2023-03-28T08:21:49.639Z,12.90
2023-03-28T08:24:28.871Z,13.00
2023-03-28T08:27:07.990Z,13.10
2023-03-28T08:29:38.476Z,13.20
2023-03-28T08:32:08.314Z,13.30
2023-03-28T08:34:38.533Z,13.40
2023-03-28T08:37:14.072Z,13.50
2023-03-28T08:39:48.893Z,13.60
2023-03-28T08:42:37.413Z,13.70
2023-03-28T08:45:43.400Z,13.80
2023-03-28T08:48:22.515Z,13.90
2023-03-28T08:50:56.797Z,14.10
2023-03-28T08:53:35.370Z,14.20
2023-03-28T08:56:07.786Z,14.30
2023-03-28T08:58:47.656Z,14.40
2023-03-28T09:01:22.225Z,14.50
2023-03-28T09:03:51.896Z,14.60
2023-03-28T09:06:30.895Z,14.80
2023-03-28T09:09:35.865Z,14.90
2023-03-28T09:12:54.107Z,15.00
2023-03-28T09:15:47.905Z,15.20
2023-03-28T09:19:03.675Z,15.40
2023-03-28T09:22:12.441Z,15.50
2023-03-28T09:24:59.219Z,15.70
2023-03-28T09:27:37.665Z,15.80
2023-03-28T09:30:20.799Z,16.00
2023-03-28T09:32:58.366Z,16.10
2023-03-28T09:35:32.174Z,16.20
2023-03-28T09:38:06.690Z,16.30
2023-03-28T09:40:41.752Z,16.50
2023-03-28T09:43:27.784Z,16.50
2023-03-28T09:46:31.591Z,16.60
2023-03-28T09:49:26.784Z,16.70
2023-03-28T09:52:16.846Z,16.80
2023-03-28T09:54:46.645Z,16.80
2023-03-28T09:57:15.828Z,16.90
2023-03-28T09:59:50.797Z,17.00
2023-03-28T10:02:29.821Z,17.00
2023-03-28T10:05:04.808Z,17.10
2023-03-28T10:08:02.023Z,17.20
2023-03-28T10:10:45.569Z,17.30
2023-03-28T10:13:19.656Z,17.40
2023-03-28T10:15:52.334Z,17.50
2023-03-28T10:18:41.578Z,17.60
2023-03-28T10:21:25.809Z,17.70
2023-03-28T10:24:09.421Z,17.80
2023-03-28T10:26:40.001Z,17.90
2023-03-28T10:29:14.829Z,18.00
2023-03-28T10:31:49.557Z,18.10
2023-03-28T10:34:41.470Z,18.10
2023-03-28T10:37:27.402Z,18.20
2023-03-28T10:40:31.283Z,18.20
2023-03-28T10:43:14.405Z,18.30
2023-03-28T10:46:18.884Z,18.30
2023-03-28T10:49:15.906Z,18.40
2023-03-28T10:51:49.369Z,18.50
2023-03-28T10:54:43.209Z,18.50
2023-03-28T10:57:33.194Z,18.50
2023-03-28T11:00:09.647Z,18.60
2023-03-28T11:03:20.483Z,18.70
2023-03-28T11:06:08.900Z,18.80
2023-03-28T11:08:52.806Z,18.90
2023-03-28T11:11:45.448Z,19.00
2023-03-28T11:14:32.600Z,19.00
2023-03-28T11:17:14.272Z,19.10
2023-03-28T11:20:18.434Z,19.20
2023-03-28T11:23:11.592Z,19.20
2023-03-28T11:25:57.785Z,19.20
2023-03-28T11:29:19.176Z,19.20
2023-03-28T11:32:04.509Z,19.20
2023-03-28T11:34:39.215Z,19.20
2023-03-28T11:37:17.599Z,19.10
2023-03-28T11:39:53.302Z,19.10
2023-03-28T11:42:38.845Z,19.10
2023-03-28T11:45:30.680Z,19.00
2023-03-28T11:48:12.782Z,19.00
2023-03-28T11:50:54.646Z,18.90
2023-03-28T11:53:44.176Z,18.90
2023-03-28T11:56:27.977Z,18.80
2023-03-28T11:59:12.733Z,18.80
2023-03-28T12:01:47.561Z,18.70
2023-03-28T12:04:22.416Z,18.60
2023-03-28T12:07:06.797Z,18.50
2023-03-28T12:10:00.468Z,18.40
2023-03-28T12:12:34.119Z,18.30
2023-03-28T12:15:07.180Z,18.30
2023-03-28T12:18:08.116Z,18.20
2023-03-28T12:20:43.920Z,18.10
2023-03-28T12:23:38.977Z,18.10
2023-03-28T12:26:31.443Z,18.00
2023-03-28T12:29:10.204Z,17.90
2023-03-28T12:31:46.493Z,17.90
2023-03-28T12:34:33.518Z,17.80
2023-03-28T12:37:44.358Z,17.80
2023-03-28T12:40:25.029Z,17.70
2023-03-28T12:43:00.226Z,17.70
2023-03-28T12:45:32.605Z,17.70
2023-03-28T12:48:07.404Z,17.60
2023-03-28T12:50:50.758Z,17.50
2023-03-28T12:53:23.857Z,17.50
2023-03-28T12:55:53.923Z,17.40
2023-03-28T12:58:28.951Z,17.40
2023-03-28T13:01:26.596Z,17.40
2023-03-28T13:04:22.909Z,17.30
2023-03-28T13:07:11.062Z,17.30
2023-03-28T13:09:57.133Z,17.30
2023-03-28T13:12:37.817Z,17.20
2023-03-28T13:15:32.825Z,17.20
2023-03-28T13:18:31.498Z,17.10
2023-03-28T13:21:04.362Z,17.10
2023-03-28T13:23:38.421Z,17.10
2023-03-28T13:26:08.328Z,17.00
2023-03-28T13:28:44.654Z,17.00
2023-03-28T13:31:27.368Z,17.00
2023-03-28T13:34:03.904Z,16.90
2023-03-28T13:36:34.709Z,16.90
2023-03-28T13:39:23.635Z,16.90
2023-03-28T13:42:01.209Z,16.80
2023-03-28T13:44:42.684Z,16.80
2023-03-28T13:47:28.794Z,16.80
2023-03-28T13:50:04.163Z,16.80
2023-03-28T13:52:33.606Z,16.70
2023-03-28T13:55:16.607Z,16.70
2023-03-28T13:57:49.569Z,16.70
2023-03-28T14:00:24.228Z,16.70
2023-03-28T14:02:55.416Z,16.60
2023-03-28T14:05:27.137Z,16.60
2023-03-28T14:08:04.247Z,16.60
2023-03-28T14:10:37.879Z,16.60
2023-03-28T14:13:12.136Z,16.60
2023-03-28T14:15:43.604Z,16.50
2023-03-28T14:18:19.003Z,16.50
2023-03-28T14:20:48.275Z,16.50
2023-03-28T14:23:30.717Z,16.50
2023-03-28T14:26:03.988Z,16.50
2023-03-28T14:28:33.981Z,16.50
2023-03-28T14:31:03.391Z,16.50
2023-03-28T14:33:37.278Z,16.50
2023-03-28T14:36:07.851Z,16.40
2023-03-28T14:38:39.593Z,16.50
2023-03-28T14:41:21.243Z,16.40
2023-03-28T14:43:55.224Z,16.40
2023-03-28T14:46:27.795Z,16.40
2023-03-28T14:49:01.474Z,16.50
2023-03-28T14:51:41.030Z,16.40
2023-03-28T14:54:16.715Z,16.40
2023-03-28T14:56:47.928Z,16.40
2023-03-28T14:59:20.196Z,16.40
2023-03-28T15:01:51.947Z,16.40
2023-03-28T15:04:23.062Z,16.40
2023-03-28T15:06:56.492Z,16.40
2023-03-28T15:09:33.379Z,16.40
2023-03-28T15:12:09.258Z,16.40
2023-03-28T15:14:43.328Z,16.40
2023-03-28T15:17:19.160Z,16.40
2023-03-28T15:19:52.515Z,16.30
2023-03-28T15:22:27.653Z,16.30
2023-03-28T15:24:58.900Z,16.30
2023-03-28T15:27:33.654Z,16.20
2023-03-28T15:30:08.047Z,16.20
2023-03-28T15:32:37.166Z,16.20
2023-03-28T15:35:25.439Z,16.20
2023-03-28T15:38:03.273Z,16.20
2023-03-28T15:40:40.751Z,16.20
2023-03-28T15:43:36.495Z,16.20
2023-03-28T15:46:11.691Z,16.20
2023-03-28T15:48:43.281Z,16.20
2023-03-28T15:51:16.733Z,16.20
2023-03-28T15:53:48.246Z,16.20
2023-03-28T15:56:24.837Z,16.20
2023-03-28T15:59:04.351Z,16.10
2023-03-28T16:01:34.436Z,16.10
2023-03-28T16:04:24.940Z,16.10
2023-03-28T16:07:05.965Z,16.10
2023-03-28T16:09:35.280Z,16.10
2023-03-28T16:12:05.850Z,16.10
2023-03-28T16:14:48.837Z,16.10
2023-03-28T16:17:37.030Z,16.00
2023-03-28T16:20:20.832Z,16.00
2023-03-28T16:22:51.213Z,16.00
2023-03-28T16:25:20.255Z,16.00
2023-03-28T16:27:49.301Z,16.00
2023-03-28T16:30:24.341Z,16.00
2023-03-28T16:32:53.438Z,15.90
2023-03-28T16:35:22.880Z,15.90
2023-03-28T16:37:52.000Z,15.90
2023-03-28T16:40:21.030Z,15.90
2023-03-28T16:42:51.038Z,15.90
2023-03-28T16:45:21.596Z,15.90
2023-03-28T16:47:51.006Z,15.90
2023-03-28T16:50:23.350Z,15.90
2023-03-28T16:52:52.498Z,15.90
2023-03-28T16:55:21.718Z,15.90
2023-03-28T16:57:50.774Z,15.80
2023-03-28T17:00:24.665Z,15.80
2023-03-28T17:02:53.886Z,15.80
2023-03-28T17:05:22.983Z,15.70
2023-03-28T17:07:52.101Z,15.70
2023-03-28T17:10:21.129Z,15.70
2023-03-28T17:12:53.110Z,15.70
2023-03-28T17:15:23.539Z,15.60
2023-03-28T17:17:52.600Z,15.60
2023-03-28T17:20:21.805Z,15.60
2023-03-28T17:22:50.844Z,15.60
2023-03-28T17:25:20.344Z,15.60
2023-03-28T17:27:49.560Z,15.50
2023-03-28T17:30:18.797Z,15.50
2023-03-28T17:32:49.508Z,15.50
2023-03-28T17:35:19.236Z,15.50
2023-03-28T17:37:52.674Z,15.50
2023-03-28T17:40:21.810Z,15.50
2023-03-28T17:42:50.852Z,15.50
2023-03-28T17:45:19.900Z,15.50
2023-03-28T17:47:54.605Z,15.50
2023-03-28T17:50:25.317Z,15.50
2023-03-28T17:52:54.353Z,15.50
2023-03-28T17:55:23.434Z,15.50
2023-03-28T17:57:52.474Z,15.50
2023-03-28T18:00:22.760Z,15.40
2023-03-28T18:02:53.265Z,15.50
2023-03-28T18:05:42.182Z,15.40
2023-03-28T18:08:11.567Z,15.50
2023-03-28T18:10:41.442Z,15.50
2023-03-28T18:13:10.560Z,15.50
2023-03-28T18:15:40.937Z,15.40
2023-03-28T18:18:12.763Z,15.40
2023-03-28T18:20:43.772Z,15.40
2023-03-28T18:23:12.754Z,15.40
2023-03-28T18:25:42.590Z,15.40
2023-03-28T18:28:11.883Z,15.40
2023-03-28T18:30:42.136Z,15.40
2023-03-28T18:33:12.719Z,15.40
2023-03-28T18:35:42.064Z,15.40
2023-03-28T18:38:13.986Z,15.40
2023-03-28T18:40:43.675Z,15.40
2023-03-28T18:43:12.724Z,15.40
2023-03-28T18:45:41.884Z,15.40
2023-03-28T18:48:13.173Z,15.40
2023-03-28T18:50:42.292Z,15.40
2023-03-28T18:53:12.143Z,15.50
2023-03-28T18:55:42.791Z,15.50
2023-03-28T18:58:12.038Z,15.50
2023-03-28T19:00:41.886Z,15.40
2023-03-28T19:03:17.730Z,15.50
2023-03-28T19:05:46.910Z,15.40
2023-03-28T19:08:15.922Z,15.50
2023-03-28T19:10:47.274Z,15.50
2023-03-28T19:13:16.265Z,15.40
2023-03-28T19:15:45.280Z,15.40
2023-03-28T19:18:15.949Z,15.50
2023-03-28T19:20:50.500Z,15.40
2023-03-28T19:23:19.476Z,15.40
2023-03-28T19:25:49.122Z,15.40
2023-03-28T19:28:19.189Z,15.40
2023-03-28T19:30:48.303Z,15.40
2023-03-28T19:33:18.725Z,15.40
2023-03-28T19:35:47.798Z,15.40
2023-03-28T19:38:16.770Z,15.40
2023-03-28T19:40:46.096Z,15.40
2023-03-28T19:43:20.933Z,15.40
2023-03-28T19:45:49.904Z,15.40
2023-03-28T19:48:20.432Z,15.30
2023-03-28T19:50:50.754Z,15.30
2023-03-28T19:53:19.775Z,15.30
2023-03-28T19:55:53.242Z,15.40
2023-03-28T19:58:24.016Z,15.40
2023-03-28T20:00:53.512Z,15.30
2023-03-28T20:03:26.739Z,15.30
2023-03-28T20:05:55.744Z,15.30
2023-03-28T20:08:24.737Z,15.30
2023-03-28T20:10:53.783Z,15.30
2023-03-28T20:13:22.786Z,15.30
2023-03-28T20:15:52.234Z,15.30
2023-03-28T20:18:26.206Z,15.20
2023-03-28T20:20:57.973Z,15.30
2023-03-28T20:23:29.737Z,15.20
2023-03-28T20:25:59.655Z,15.20
2023-03-28T20:28:32.066Z,15.20
2023-03-28T20:31:01.465Z,15.20
2023-03-28T20:33:32.380Z,15.20
2023-03-28T20:36:01.820Z,15.20
2023-03-28T20:38:33.906Z,15.20
2023-03-28T20:41:03.159Z,15.20
2023-03-28T20:43:36.818Z,15.10
2023-03-28T20:46:06.260Z,15.10
2023-03-28T20:48:36.845Z,15.10
2023-03-28T20:51:14.311Z,15.10
2023-03-28T20:53:45.369Z,15.10
2023-03-28T20:56:14.895Z,15.10
2023-03-28T20:58:45.287Z,15.00
2023-03-28T21:01:16.624Z,15.00
2023-03-28T21:03:48.267Z,15.00
2023-03-28T21:06:19.523Z,15.00
2023-03-28T21:08:53.869Z,15.00
2023-03-28T21:11:26.438Z,15.00
2023-03-28T21:13:57.723Z,15.00
2023-03-28T21:16:27.793Z,15.00
2023-03-28T21:18:58.350Z,15.00
2023-03-28T21:21:29.841Z,15.00
2023-03-28T21:23:59.008Z,14.90
2023-03-28T21:26:29.044Z,14.90
2023-03-28T21:28:58.740Z,14.90
2023-03-28T21:31:30.071Z,14.80
2023-03-28T21:34:00.992Z,14.80
2023-03-28T21:36:30.376Z,14.80
2023-03-28T21:39:02.634Z,14.70
2023-03-28T21:41:31.781Z,14.70
2023-03-28T21:44:03.794Z,14.70
2023-03-28T21:46:32.934Z,14.70
2023-03-28T21:49:03.435Z,14.70
2023-03-28T21:51:35.957Z,14.70
2023-03-28T21:54:05.986Z,14.70
2023-03-28T21:56:35.655Z,14.70
2023-03-28T21:59:04.606Z,14.70
2023-03-28T22:01:33.855Z,14.70
2023-03-28T22:04:22.522Z,14.70
2023-03-28T22:06:51.493Z,14.70
2023-03-28T22:09:21.980Z,14.70
2023-03-28T22:11:50.984Z,14.70
2023-03-28T22:14:20.174Z,14.60
2023-03-28T22:16:49.233Z,14.70
2023-03-28T22:19:18.823Z,14.70
2023-03-28T22:21:49.596Z,14.60
2023-03-28T22:24:18.712Z,14.70
2023-03-28T22:26:49.917Z,14.70
2023-03-28T22:29:19.429Z,14.70
2023-03-28T22:31:48.473Z,14.60
2023-03-28T22:34:17.781Z,14.60
2023-03-28T22:36:49.466Z,14.70
2023-03-28T22:39:18.799Z,14.70
2023-03-28T22:41:47.768Z,14.70
2023-03-28T22:44:21.357Z,14.60
2023-03-28T22:46:51.268Z,14.60
2023-03-28T22:49:22.375Z,14.60
2023-03-28T22:51:56.198Z,14.60
2023-03-28T22:54:25.204Z,14.60
2023-03-28T22:56:54.281Z,14.60
2023-03-28T22:59:23.343Z,14.50
2023-03-28T23:01:52.705Z,14.50
2023-03-28T23:04:23.539Z,14.50
2023-03-28T23:06:53.922Z,14.40
2023-03-28T23:09:27.859Z,14.40
2023-03-28T23:11:57.197Z,14.40
2023-03-28T23:14:26.339Z,14.40
2023-03-28T23:16:55.340Z,14.30
2023-03-28T23:19:24.317Z,14.30
2023-03-28T23:21:55.180Z,14.30
2023-03-28T23:24:26.233Z,14.30
2023-03-28T23:26:55.432Z,14.30
2023-03-28T23:29:24.703Z,14.30
2023-03-28T23:31:53.739Z,14.30
2023-03-28T23:34:25.044Z,14.30
2023-03-28T23:36:58.063Z,14.20
2023-03-28T23:39:27.043Z,14.30
2023-03-28T23:41:56.229Z,14.30
2023-03-28T23:44:25.418Z,14.30
2023-03-28T23:46:56.376Z,14.30
2023-03-28T23:49:25.609Z,14.30
2023-03-28T23:51:54.555Z,14.30
2023-03-28T23:54:25.895Z,14.30
2023-03-28T23:56:54.898Z,14.30
2023-03-28T23:59:25.246Z,14.30
